Latest Weather Observations for Mount Crawford

IDS60801

Issued at 11:05 am CDT Monday 24 November 2014 (issued every 30 minutes, with the page automatically refreshed every 10 minutes)

About weather observations | Map of weather stations | Latest weather observations for SA | Other Formats
Station Details ID: 023878 Name: MT CRAWFORD AWS Lat: -34.73 Lon: 138.93 Height: 525.0 m
Data from the previous 72 hours. | See also: Recent months at Mount Crawford
Date/Time
CDT
Temp
°C
App
Temp
°C
Dew
Point
Rel
Hum
%
Delta-T
°C
Wind Press
QNH
hPa
Press
MSL
hPa
Rain
since 9 am
mm
Dir
 
Spd
km/h
Gust
km/h
Spd
kts
Gust
kts
24/11:00am 19.6 14.9 9.2 51 5.6 WSW 24 37 13 20 1012.8 1011.5 0.0
24/10:30am 18.9 15.8 10.2 57 4.8 WSW 17 30 9 16 1012.8 1011.5 0.0
24/10:00am 17.8 14.7 10.4 62 4.1 SW 17 28 9 15 1012.9 1011.6 0.0
24/09:30am 17.0 13.5 10.1 64 3.7 SSW 19 28 10 15 1012.6 1011.2 0.0
24/09:00am 15.9 12.8 10.4 70 3.0 SSW 17 20 9 11 1011.9 1010.5 0.0
24/08:30am 15.7 12.3 11.3 75 2.4 S 20 26 11 14 1011.6 1010.2 0.0
24/08:00am 13.9 10.1 11.1 83 1.5 S 22 28 12 15 1011.2 1009.8 0.0
24/07:30am 13.7 10.3 11.2 85 1.4 SSE 20 28 11 15 1010.2 1008.8 0.0
24/07:00am 14.1 10.7 11.4 84 1.5 SSE 20 28 11 15 1009.8 1008.4 0.0
24/06:30am 16.1 13.6 11.1 72 2.8 SE 15 19 8 10 1009.3 1007.8 0.0
24/06:00am 19.4 18.5 11.2 59 4.6 ESE 7 11 4 6 1008.8 1007.4 0.0
24/05:30am 20.8 17.9 10.9 53 5.6 NNE 17 22 9 12 1008.5 1007.1 0.0
24/05:00am 21.8 18.8 10.6 49 6.3 N 17 26 9 14 1008.0 1006.6 0.0
24/04:30am 21.9 18.5 10.4 48 6.5 NNE 19 30 10 16 1007.5 1006.0 0.0
24/04:00am 22.8 17.2 10.3 45 7.0 NNE 30 43 16 23 1007.0 1005.5 0.0
24/03:30am 22.0 15.9 10.5 48 6.5 NNE 33 44 18 24 1007.3 1005.8 0.0
24/03:00am 22.2 16.2 10.7 48 6.5 NNE 33 44 18 24 1008.0 1006.6 0.0
24/02:30am 20.3 17.1 11.8 58 4.9 NNE 20 32 11 17 1008.7 1007.3 0.0
24/02:00am 18.5 15.5 11.8 65 3.8 NE 19 22 10 12 1009.4 1007.9 0.0
24/01:30am 18.7 15.5 11.8 64 3.9 E 20 30 11 16 1009.5 1008.1 0.0
24/01:00am 18.5 15.3 11.8 65 3.8 E 20 35 11 19 1009.8 1008.4 0.0
24/12:30am 18.6 13.9 11.9 65 3.8 E 28 39 15 21 1009.9 1008.5 0.0
24/12:00am 18.6 13.9 11.9 65 3.8 E 28 35 15 19 1010.3 1008.9 0.0
 
Date/Time
CDT
Temp
°C
App
Temp
°C
Dew
Point
Rel
Hum
%
Delta-T
°C
Wind Press
QNH
hPa
Press
MSL
hPa
Rain
since 9 am
mm
Dir
 
Spd
km/h
Gust
km/h
Spd
kts
Gust
kts
23/11:30pm 18.6 13.8 11.7 64 3.9 E 28 35 15 19 1010.3 1008.9 0.0
23/11:00pm 19.1 14.7 11.7 62 4.2 E 26 35 14 19 1010.6 1009.2 0.0
23/10:30pm 19.6 14.7 11.4 59 4.6 E 28 35 15 19 1010.7 1009.3 0.0
23/10:00pm 20.0 14.7 11.2 57 5.0 E 30 43 16 23 1010.6 1009.2 0.0
23/09:30pm 20.2 15.6 10.9 55 5.2 E 26 35 14 19 1010.5 1009.1 0.0
23/09:00pm 20.9 16.1 10.4 51 5.9 E 26 37 14 20 1010.3 1008.9 0.0
23/08:30pm 21.2 16.4 10.4 50 6.0 E 26 32 14 17 1010.1 1008.7 0.0
23/08:00pm 22.0 17.3 10.5 48 6.5 E 26 35 14 19 1009.9 1008.5 0.0
23/07:30pm 22.9 17.7 10.3 45 7.1 E 28 37 15 20 1009.9 1008.5 0.0
23/07:00pm 23.6 19.3 10.6 44 7.4 E 24 37 13 20 1010.2 1008.8 0.0
23/06:30pm 24.7 20.1 10.9 42 7.9 ESE 26 37 14 20 1010.3 1008.9 0.0
23/06:00pm 24.4 20.5 8.8 37 8.6 E 19 28 10 15 1010.7 1009.3 0.0
23/05:30pm 24.7 21.9 8.6 36 8.9 E 13 15 7 8 1011.7 1010.3 0.0
23/05:00pm 24.3 21.8 6.6 32 9.4 SE 9 13 5 7 1011.6 1010.2 0.0
23/04:30pm 24.4 21.3 5.7 30 9.8 W 11 19 6 10 1012.0 1010.6 0.0
23/04:00pm 24.3 20.7 5.1 29 9.9 W 13 17 7 9 1012.5 1011.1 0.0
23/03:30pm 23.3 20.1 10.0 43 7.5 WSW 17 24 9 13 1012.8 1011.5 0.0
23/03:00pm 24.9 20.8 8.8 36 8.9 W 20 28 11 15 1013.5 1012.1 0.0
23/02:30pm 25.8 21.8 8.3 33 9.6 WNW 19 33 10 18 1013.6 1012.2 0.0
23/02:00pm 25.3 22.4 6.5 30 10.0 WNW 11 22 6 12 1012.9 1011.6 0.0
23/01:30pm 25.5 22.7 7.1 31 9.9 W 11 20 6 11 1012.7 1011.3 0.0
23/01:00pm 24.2 21.7 8.2 36 8.7 N 11 13 6 7 1013.5 1012.1 0.0
23/12:30pm 24.5 20.6 9.3 38 8.5 NW 20 28 11 15 1013.6 1012.2 0.0
23/12:00pm 24.8 22.1 9.1 37 8.7 NW 13 20 7 11 1013.6 1012.2 0.0
23/11:30am 24.3 22.0 9.1 38 8.4 WNW 11 17 6 9 1013.3 1011.9 0.0
23/11:00am 23.4 20.9 8.3 38 8.2 WNW 11 17 6 9 1013.2 1011.8 0.0
23/10:30am 23.5 21.5 8.8 39 8.1 NW 9 15 5 8 1012.9 1011.6 0.0
23/10:00am 22.2 19.9 7.6 39 7.8 NW 9 11 5 6 1012.8 1011.5 0.0
23/09:30am 21.3 20.5 11.1 52 5.8 N 6 11 3 6 1012.8 1011.5 0.0
23/09:00am 19.3 18.3 10.3 56 5.0 NNE 6 9 3 5 1013.2 1011.8 6.4
23/08:30am 17.9 16.9 7.3 50 5.5 WSW 2 7 1 4 1012.9 1011.6 6.4
23/08:00am 16.2 16.8 11.8 75 2.5 CALM 0 0 0 0 1012.8 1011.5 6.4
23/07:30am 14.1 13.4 12.0 87 1.2 W 7 9 4 5 1012.9 1011.6 6.4
23/07:00am 13.3 12.3 12.2 93 0.6 NW 9 9 5 5 1012.8 1011.5 6.4
23/06:30am 12.7 11.0 12.5 99 0.1 WNW 13 15 7 8 1012.6 1011.2 6.4
23/06:00am 12.6 11.1 11.8 95 0.4 N 11 15 6 8 1012.6 1011.2 6.4
23/05:30am 12.3 10.6 9.7 84 1.4 N 9 13 5 7 1012.4 1011.0 6.4
23/05:00am 11.8 10.5 9.2 84 1.3 NE 6 9 3 5 1012.6 1011.2 6.4
23/04:30am 12.0 10.7 7.7 75 2.2 NE 4 9 2 5 1012.4 1011.0 6.4
23/04:00am 12.6 9.6 7.7 72 2.5 SSE 13 13 7 7 1012.0 1010.6 6.4
23/03:30am 11.2 9.0 9.5 89 0.9 SE 11 13 6 7 1011.9 1010.5 6.4
23/03:00am 12.2 8.7 8.9 80 1.7 S 17 20 9 11 1011.7 1010.3 6.4
23/02:30am 11.8 8.2 10.0 89 0.9 S 19 22 10 12 1012.0 1010.6 6.4
23/02:00am 11.7 8.4 10.8 94 0.5 S 19 22 10 12 1012.0 1010.6 6.4
23/01:30am 11.7 8.4 10.9 95 0.4 SSE 19 24 10 13 1012.2 1010.8 6.4
23/01:00am 11.8 8.3 11.0 95 0.4 S 20 24 11 13 1012.3 1010.9 6.4
23/12:30am 11.9 8.0 10.8 93 0.6 S 22 26 12 14 1012.5 1011.1 6.4
23/12:00am 12.2 7.4 10.3 88 1.0 S 26 32 14 17 1012.5 1011.1 6.4
 
Date/Time
CDT
Temp
°C
App
Temp
°C
Dew
Point
Rel
Hum
%
Delta-T
°C
Wind Press
QNH
hPa
Press
MSL
hPa
Rain
since 9 am
mm
Dir
 
Spd
km/h
Gust
km/h
Spd
kts
Gust
kts
22/11:30pm 12.5 8.2 10.6 88 1.0 S 24 28 13 15 1012.6 1011.2 6.4
22/11:00pm 12.6 9.0 11.7 94 0.5 SSE 22 28 12 15 1012.5 1011.1 6.4
22/10:30pm 13.2 11.0 13.2 100 0.0 SSE 17 22 9 12 1012.4 1011.0 6.4
22/10:00pm 13.9 11.3 13.9 100 0.0 SSE 20 24 11 13 1012.2 1010.8 6.4
22/09:30pm 16.0 15.6 14.0 88 1.2 SSW 9 13 5 7 1011.9 1010.5 6.4
22/09:00pm 17.0 16.4 14.5 85 1.5 SW 11 13 6 7 1011.5 1010.1 6.4
22/08:30pm 17.8 17.5 15.4 86 1.4 SW 11 15 6 8 1011.2 1009.8 6.4
22/08:00pm 19.0 19.0 15.3 79 2.2 SW 9 13 5 7 1010.7 1009.3 6.4
22/07:30pm 19.4 17.5 14.2 72 3.1 SSW 17 24 9 13 1010.2 1008.8 6.4
22/07:00pm 19.8 17.3 14.0 69 3.4 WSW 20 30 11 16 1009.6 1008.2 6.4
22/06:30pm 21.4 19.2 15.0 67 3.9 WSW 20 30 11 16 1009.2 1007.7 6.4
22/06:00pm 23.0 20.7 14.6 59 5.1 WSW 20 28 11 15 1008.8 1007.4 6.4
22/05:30pm 23.4 19.6 13.6 54 5.9 W 26 35 14 19 1008.4 1007.0 6.4
22/05:00pm 24.3 21.6 14.7 55 5.8 W 22 35 12 19 1008.3 1006.9 6.4
22/04:30pm 23.9 22.2 14.6 56 5.7 W 17 22 9 12 1008.3 1006.9 6.4
22/04:00pm 22.6 21.7 15.9 66 4.1 W 15 30 8 16 1008.2 1006.8 6.4
22/03:30pm 22.3 20.3 15.6 66 4.1 W 20 30 11 16 1008.3 1006.9 6.4
22/03:00pm 21.9 20.1 15.5 67 3.9 WNW 19 24 10 13 1008.4 1007.0 6.4
22/02:30pm 19.9 20.2 14.5 71 3.2 NNE 6 11 3 6 1008.3 1006.9 6.4
22/02:00pm 18.0 16.6 15.6 86 1.4 NW 17 28 9 15 1009.9 1008.5 6.2
22/01:30pm 18.4 17.2 15.1 81 2.0 NE 15 20 8 11 1009.8 1008.4 3.6
22/01:00pm 19.8 17.7 14.8 73 3.0 NE 19 26 10 14 1009.3 1007.8 3.2
22/12:30pm 20.5 18.0 14.2 67 3.8 ENE 20 30 11 16 1008.8 1007.4 3.2
22/12:00pm 18.5 15.9 15.9 85 1.6 E 24 33 13 18 1008.8 1007.4 3.2
22/11:30am 16.7 14.2 15.1 90 1.0 ESE 22 30 12 16 1010.0 1008.6 3.2
22/11:12am 17.4 16.3 15.2 87 1.3 S 15 20 8 11 1011.2 1009.8 1.4
22/11:00am 17.1 14.8 14.6 85 1.5 ESE 20 30 11 16 1009.2 1007.7 1.4
22/10:30am 17.3 16.2 14.2 82 1.8 ENE 13 19 7 10 1009.9 1008.5 1.4
22/10:00am 17.5 15.0 14.2 81 1.9 E 20 32 11 17 1010.0 1008.6 0.8
22/09:30am 17.6 16.9 13.3 76 2.5 SSW 9 15 5 8 1010.8 1009.4 0.4
22/09:00am 17.4 16.3 11.9 70 3.1 E 9 15 5 8 1011.5 1010.1 2.2
22/08:30am 15.8 14.0 12.0 78 2.1 E 13 19 7 10 1010.7 1009.3 1.4
22/08:00am 16.6 15.3 11.1 70 3.0 W 9 17 5 9 1010.6 1009.2 1.2
22/07:46am 16.6 12.8 11.3 71 2.9 W 22 32 12 17 1011.5 1010.1 1.0
22/07:30am 18.8 15.4 9.3 54 5.1 NNE 17 22 9 12 1009.4 1007.9 0.6
22/07:00am 19.7 15.3 7.4 45 6.4 N 20 26 11 14 1009.5 1008.1 0.4
22/06:30am 19.2 14.8 7.3 46 6.2 NNE 20 28 11 15 1008.8 1007.4 0.2
22/06:00am 20.6 16.0 6.5 40 7.3 N 20 30 11 16 1009.9 1008.5 0.2
22/05:30am 20.4 13.3 5.6 38 7.5 NNE 32 43 17 23 1009.5 1008.1 0.0
22/05:00am 20.7 12.8 4.3 34 8.1 NE 35 50 19 27 1007.9 1006.5 0.0
22/04:36am 20.7 12.9 4.7 35 8.0 NE 35 54 19 29 1007.9 1006.5 0.0
22/04:30am 20.8 12.6 4.8 35 8.1 NE 37 50 20 27 1007.6 1006.1 0.0
22/04:00am 20.6 13.7 4.6 35 8.0 NNE 30 46 16 25 1008.1 1006.7 0.0
22/03:30am 20.3 12.9 5.1 37 7.7 NE 33 44 18 24 1008.0 1006.6 0.0
22/03:00am 18.9 12.5 5.0 40 6.9 NE 28 35 15 19 1008.0 1006.6 0.0
22/02:30am 18.2 11.9 5.8 44 6.3 NE 28 37 15 20 1008.5 1007.1 0.0
22/02:00am 18.0 11.7 5.6 44 6.2 ENE 28 37 15 20 1008.8 1007.4 0.0
22/01:30am 17.2 11.0 6.1 48 5.6 ENE 28 37 15 20 1009.2 1007.7 0.0
22/01:00am 17.3 11.9 6.2 48 5.6 ENE 24 32 13 17 1009.6 1008.2 0.0
22/12:30am 16.9 12.3 6.4 50 5.3 E 20 26 11 14 1010.3 1008.9 0.0
22/12:00am 17.2 12.4 7.3 52 5.1 ENE 22 28 12 15 1010.7 1009.3 0.0
 
Date/Time
CDT
Temp
°C
App
Temp
°C
Dew
Point
Rel
Hum
%
Delta-T
°C
Wind Press
QNH
hPa
Press
MSL
hPa
Rain
since 9 am
mm
Dir
 
Spd
km/h
Gust
km/h
Spd
kts
Gust
kts
21/11:30pm 17.4 13.1 6.9 50 5.4 E 19 26 10 14 1011.1 1009.6 0.0
21/11:00pm 17.5 13.1 6.7 49 5.5 E 19 22 10 12 1011.7 1010.3 0.0
21/10:30pm 17.5 13.6 7.0 50 5.4 E 17 20 9 11 1012.1 1010.7 0.0
21/10:00pm 18.0 13.6 6.5 47 5.9 ESE 19 22 10 12 1012.3 1010.9 0.0
21/09:30pm 18.7 14.6 4.5 39 7.0 ESE 15 19 8 10 1012.3 1010.9 0.0
21/09:00pm 20.4 17.0 4.0 34 8.1 E 11 13 6 7 1012.2 1010.8 0.0
21/08:30pm 20.4 17.8 4.0 34 8.1 SW 7 9 4 5 1012.2 1010.8 0.0
21/08:00pm 20.8 19.5 4.0 33 8.3 CALM 0 0 0 0 1012.1 1010.7 0.0
21/07:30pm 21.4 20.2 4.5 33 8.5 CALM 0 0 0 0 1011.9 1010.5 0.0
21/07:00pm 22.3 20.7 4.4 31 9.0 SW 2 6 1 3 1011.8 1010.4 0.0
21/06:30pm 22.6 19.9 3.7 29 9.4 WSW 7 11 4 6 1011.7 1010.3 0.0
21/06:00pm 23.0 19.9 3.5 28 9.7 WSW 9 13 5 7 1011.8 1010.4 0.0
21/05:30pm 23.0 19.5 3.5 28 9.7 W 11 17 6 9 1011.6 1010.2 0.0
21/05:00pm 23.5 19.9 4.9 30 9.5 W 13 20 7 11 1011.7 1010.3 0.0
21/04:30pm 23.0 18.8 4.0 29 9.5 W 15 24 8 13 1011.7 1010.3 0.0
21/04:00pm 22.8 18.3 4.3 30 9.3 W 17 24 9 13 1011.7 1010.3 0.0
21/03:30pm 21.9 17.0 4.9 33 8.6 W 20 32 11 17 1012.0 1010.6 0.0
21/03:00pm 20.9 16.1 2.7 30 8.8 W 17 24 9 13 1012.1 1010.7 0.0
21/02:30pm 21.1 16.4 3.3 31 8.7 WSW 17 26 9 14 1012.2 1010.8 0.0
21/02:00pm 20.5 15.4 4.1 34 8.1 W 20 30 11 16 1012.6 1011.2 0.0
21/01:30pm 20.6 15.9 5.0 36 7.9 W 19 32 10 17 1013.1 1011.7 0.0
21/01:00pm 19.6 14.7 6.7 43 6.7 W 22 35 12 19 1013.1 1011.7 0.0
21/12:30pm 19.3 14.6 6.1 42 6.7 W 20 30 11 16 1013.5 1012.1 0.0
21/12:00pm 18.2 14.6 8.5 53 5.1 W 17 26 9 14 1013.6 1012.2 0.0
21/11:30am 17.2 13.0 8.1 55 4.8 W 20 30 11 16 1013.7 1012.3 0.0

Other Formats:

Comma delimited format used in spreadsheet applications
http://www.bom.gov.au/fwo/IDS60801/IDS60801.94678.axf

JavaScript Object Notation format (JSON) in row-major order
http://www.bom.gov.au/fwo/IDS60801/IDS60801.94678.json